Time;durP1;ratioP1;P1;durP2;ratioP2;P2;SDS_P1;SDS_P2;PMS_P1;PMS_P2;Temp;Humidity;BMP_temperature;BMP_pressure;BME280_temperature;BME280_humidity;BME280_pressure;Samples;Min_cycle;Max_cycle;Signal;HPM_P1;HPM_P2
2022/01/28 00:00:08;;;;;;;14.10;5.55;;;;;;;;;;6102098;23;20426;-88
2022/01/28 00:02:50;;;;;;;19.73;3.67;;;;;;;;;;6102411;23;20134;-88
2022/01/28 00:05:20;;;;;;;13.82;3.42;;;;;;;;;;6102054;23;20042;-88
2022/01/28 00:07:46;;;;;;;10.38;3.85;;;;;;;;;;6102494;23;20029;-88
2022/01/28 00:10:12;;;;;;;26.95;3.45;;;;;;;;;;6101772;23;20025;-88
2022/01/28 00:12:52;;;;;;;5.55;2.80;;;;;;;;;;6101831;23;20359;-88
2022/01/28 00:15:24;;;;;;;15.30;4.05;;;;;;;;;;6126023;23;20077;-88
2022/01/28 00:39:08;;;;;;;14.82;4.93;;;;;;;;;;6130810;23;20460;-88
2022/01/28 00:41:35;;;;;;;12.15;4.15;;;;;;;;;;6131023;23;20482;-88
2022/01/28 00:44:01;;;;;;;16.83;3.33;;;;;;;;;;6107288;23;20017;-90
2022/01/28 00:46:27;;;;;;;12.82;2.83;;;;;;;;;;6106597;23;20048;-88
2022/01/28 00:48:53;;;;;;;7.18;3.03;;;;;;;;;;6131010;23;20068;-87
2022/01/28 00:51:19;;;;;;;12.35;3.30;;;;;;;;;;6106153;23;20332;-88
2022/01/28 00:53:45;;;;;;;7.53;2.92;;;;;;;;;;6106674;23;20104;-89
2022/01/28 00:56:11;;;;;;;13.82;3.28;;;;;;;;;;6131057;23;20558;-88
2022/01/28 00:58:37;;;;;;;16.70;3.15;;;;;;;;;;6106596;23;20478;-87
2022/01/28 01:01:03;;;;;;;12.32;3.38;;;;;;;;;;6131169;23;20022;-88
2022/01/28 01:03:29;;;;;;;13.88;3.78;;;;;;;;;;6131149;23;20017;-88
2022/01/28 01:05:55;;;;;;;20.00;4.63;;;;;;;;;;6130694;23;20539;-88
2022/01/28 01:08:21;;;;;;;31.08;4.30;;;;;;;;;;6131110;23;20093;-89
2022/01/28 01:10:49;;;;;;;16.60;3.70;;;;;;;;;;6130285;23;20344;-89
2022/01/28 01:13:15;;;;;;;14.07;4.78;;;;;;;;;;6106554;23;20079;-88
2022/01/28 01:15:45;;;;;;;21.85;4.15;;;;;;;;;;6107663;23;20320;-87
2022/01/28 01:18:19;;;;;;;17.17;4.63;;;;;;;;;;6130757;23;20026;-87
2022/01/28 01:23:16;;;;;;;23.83;4.95;;;;;;;;;;6131061;23;20025;-88
2022/01/28 01:28:13;;;;;;;22.48;4.75;;;;;;;;;;6131853;23;20472;-87
2022/01/28 01:30:41;;;;;;;24.77;4.57;;;;;;;;;;6108702;23;20018;-89
2022/01/28 01:33:08;;;;;;;27.10;3.83;;;;;;;;;;6132765;23;20017;-90
2022/01/28 01:35:34;;;;;;;15.55;3.83;;;;;;;;;;6109116;23;20056;-88
2022/01/28 01:38:01;;;;;;;18.40;4.43;;;;;;;;;;6109343;23;20398;-88
2022/01/28 01:40:33;;;;;;;18.13;4.32;;;;;;;;;;6133392;23;20448;-88
2022/01/28 01:46:08;;;;;;;27.02;4.63;;;;;;;;;;6088932;23;20021;-88
2022/01/28 01:54:17;;;;;;;25.83;5.30;;;;;;;;;;6017041;23;20369;-88
2022/01/28 01:56:43;;;;;;;19.80;5.00;;;;;;;;;;6017264;23;20054;-91
2022/01/28 01:59:09;;;;;;;29.17;5.30;;;;;;;;;;5993336;23;20464;-90
2022/01/28 02:01:36;;;;;;;21.10;5.57;;;;;;;;;;6017282;23;20094;-91
2022/01/28 02:04:02;;;;;;;19.52;5.13;;;;;;;;;;5995336;23;20393;-88
2022/01/28 02:06:29;;;;;;;25.73;6.80;;;;;;;;;;6017824;23;20357;-89
2022/01/28 02:08:55;;;;;;;40.55;6.57;;;;;;;;;;5994736;23;20023;-88
2022/01/28 02:11:21;;;;;;;21.08;5.63;;;;;;;;;;6018597;23;20023;-90
2022/01/28 02:13:49;;;;;;;20.08;3.88;;;;;;;;;;6000577;23;20047;-92
2022/01/28 02:16:15;;;;;;;13.40;3.22;;;;;;;;;;5999932;23;20027;-91
2022/01/28 02:18:41;;;;;;;14.80;3.25;;;;;;;;;;6000211;23;20015;-91
2022/01/28 02:21:10;;;;;;;15.48;3.55;;;;;;;;;;5998723;23;20012;-93
2022/01/28 02:23:37;;;;;;;16.75;3.45;;;;;;;;;;6000386;23;20047;-93
2022/01/28 02:26:07;;;;;;;10.90;4.82;;;;;;;;;;6009460;23;20030;-90
2022/01/28 02:28:37;;;;;;;17.33;4.15;;;;;;;;;;6114840;23;20080;-91
2022/01/28 02:31:04;;;;;;;14.85;5.10;;;;;;;;;;6114419;23;20013;-93
2022/01/28 02:33:30;;;;;;;20.65;3.75;;;;;;;;;;6113531;23;20028;-91
2022/01/28 02:36:04;;;;;;;10.73;3.42;;;;;;;;;;6133431;23;20016;-89
2022/01/28 02:38:31;;;;;;;14.55;2.95;;;;;;;;;;6107815;23;20025;-89
2022/01/28 02:41:00;;;;;;;11.18;3.30;;;;;;;;;;6132314;23;20044;-88
2022/01/28 02:45:55;;;;;;;16.98;4.00;;;;;;;;;;6132586;23;20022;-89
2022/01/28 02:48:23;;;;;;;12.82;3.67;;;;;;;;;;6108058;23;20017;-87
2022/01/28 02:53:27;;;;;;;10.93;3.78;;;;;;;;;;6132226;23;20486;-89
2022/01/28 02:56:00;;;;;;;5.75;2.67;;;;;;;;;;6107843;23;20052;-88
2022/01/28 02:58:27;;;;;;;17.07;3.93;;;;;;;;;;6107128;23;20017;-88
2022/01/28 03:00:57;;;;;;;20.60;5.75;;;;;;;;;;6107165;23;20029;-87
2022/01/28 03:03:23;;;;;;;15.88;3.35;;;;;;;;;;6107207;23;20014;-87
2022/01/28 03:05:50;;;;;;;16.77;4.43;;;;;;;;;;6107324;23;20092;-89
2022/01/28 03:08:16;;;;;;;13.45;3.30;;;;;;;;;;6108552;23;20017;-88
2022/01/28 03:10:55;;;;;;;15.68;3.83;;;;;;;;;;6107104;23;20014;-88
2022/01/28 03:16:06;;;;;;;8.85;4.10;;;;;;;;;;6131564;23;20021;-87
2022/01/28 03:18:43;;;;;;;10.90;3.72;;;;;;;;;;6107653;23;20013;-88
2022/01/28 03:21:38;;;;;;;14.32;4.15;;;;;;;;;;6131501;23;20018;-88
2022/01/28 03:24:06;;;;;;;15.57;3.25;;;;;;;;;;6131663;23;20518;-89
2022/01/28 03:26:32;;;;;;;14.25;4.90;;;;;;;;;;6107092;23;20055;-87
2022/01/28 03:28:58;;;;;;;13.15;3.83;;;;;;;;;;6107183;23;20037;-87
2022/01/28 03:31:24;;;;;;;18.15;4.30;;;;;;;;;;6132727;23;20017;-87
2022/01/28 03:33:50;;;;;;;16.10;4.63;;;;;;;;;;6131576;23;20024;-87
2022/01/28 03:36:16;;;;;;;12.02;3.13;;;;;;;;;;6131453;23;20022;-88
2022/01/28 03:38:46;;;;;;;26.05;4.28;;;;;;;;;;6106552;23;20017;-88
2022/01/28 03:41:16;;;;;;;13.32;4.70;;;;;;;;;;6106617;23;20020;-88
2022/01/28 03:43:43;;;;;;;20.77;4.95;;;;;;;;;;6107157;23;20060;-87
2022/01/28 03:46:10;;;;;;;24.40;4.07;;;;;;;;;;6107353;23;20013;-88
2022/01/28 03:48:36;;;;;;;28.00;4.95;;;;;;;;;;6132092;23;20029;-88
2022/01/28 03:51:02;;;;;;;11.23;4.80;;;;;;;;;;6106438;23;20067;-88
2022/01/28 03:53:28;;;;;;;6.68;2.92;;;;;;;;;;6131431;23;20018;-88
2022/01/28 03:55:57;;;;;;;38.92;5.18;;;;;;;;;;6106934;23;20024;-88
2022/01/28 03:58:23;;;;;;;13.57;4.03;;;;;;;;;;6107040;23;20451;-89
2022/01/28 04:00:50;;;;;;;25.38;4.38;;;;;;;;;;6106559;23;20525;-89
2022/01/28 04:13:50;;;;;;;26.70;4.93;;;;;;;;;;6157020;23;20025;-89
2022/01/28 04:18:48;;;;;;;31.27;5.45;;;;;;;;;;6130803;23;20126;-87
2022/01/28 04:21:14;;;;;;;37.33;5.20;;;;;;;;;;6130830;23;20018;-88
2022/01/28 04:23:40;;;;;;;18.52;4.88;;;;;;;;;;6106999;23;20025;-87
2022/01/28 04:26:06;;;;;;;15.18;3.60;;;;;;;;;;6106883;23;20447;-88
2022/01/28 04:28:32;;;;;;;37.03;5.00;;;;;;;;;;6107045;23;20017;-88
2022/01/28 04:30:58;;;;;;;18.00;4.22;;;;;;;;;;6130909;23;20060;-88
2022/01/28 04:33:24;;;;;;;32.97;5.22;;;;;;;;;;6131000;23;20018;-87
2022/01/28 04:35:54;;;;;;;16.60;4.80;;;;;;;;;;6130357;23;20061;-87
2022/01/28 04:38:37;;;;;;;23.88;5.03;;;;;;;;;;6157079;23;20018;-88
2022/01/28 04:43:37;;;;;;;21.60;4.28;;;;;;;;;;6131043;23;20513;-89
2022/01/28 04:49:12;;;;;;;28.33;5.03;;;;;;;;;;6014662;23;20548;-87
2022/01/28 04:57:24;;;;;;;12.88;3.67;;;;;;;;;;5986223;23;20023;-88
2022/01/28 05:02:50;;;;;;;17.35;5.05;;;;;;;;;;6009881;23;20032;-88
2022/01/28 05:28:58;;;;;;;22.27;4.38;;;;;;;;;;6043578;23;20101;-88
2022/01/28 05:31:24;;;;;;;20.10;4.28;;;;;;;;;;6042979;23;20029;-87
2022/01/28 05:33:50;;;;;;;19.45;5.82;;;;;;;;;;6052266;23;20025;-90
2022/01/28 05:36:16;;;;;;;28.98;4.47;;;;;;;;;;6108315;23;20029;-89
2022/01/28 05:38:42;;;;;;;21.20;4.63;;;;;;;;;;6107675;23;20018;-88
2022/01/28 05:41:08;;;;;;;19.40;3.65;;;;;;;;;;6106937;23;20440;-88
2022/01/28 05:43:35;;;;;;;21.00;3.67;;;;;;;;;;6106144;23;20017;-88
2022/01/28 05:46:01;;;;;;;18.45;5.50;;;;;;;;;;6106606;23;20075;-88
2022/01/28 05:48:27;;;;;;;17.48;5.03;;;;;;;;;;6131920;23;20013;-89
2022/01/28 05:50:53;;;;;;;22.85;6.10;;;;;;;;;;6106884;23;20014;-88
2022/01/28 05:53:19;;;;;;;14.43;4.53;;;;;;;;;;6107779;23;20057;-87
2022/01/28 05:55:45;;;;;;;21.85;4.15;;;;;;;;;;6106059;23;20014;-88
2022/01/28 05:58:11;;;;;;;22.83;4.53;;;;;;;;;;6106122;23;20405;-87
2022/01/28 06:00:37;;;;;;;16.27;3.83;;;;;;;;;;6105992;23;20052;-87
2022/01/28 06:03:03;;;;;;;15.23;3.85;;;;;;;;;;6106428;23;20014;-87
2022/01/28 06:05:30;;;;;;;15.40;5.05;;;;;;;;;;6106697;23;20017;-87
2022/01/28 06:07:57;;;;;;;22.35;4.28;;;;;;;;;;6107923;23;20014;-88
2022/01/28 06:10:23;;;;;;;26.88;3.95;;;;;;;;;;6131033;23;20114;-87
2022/01/28 06:12:49;;;;;;;21.60;4.30;;;;;;;;;;6107041;23;20022;-86
2022/01/28 06:15:16;;;;;;;13.65;4.32;;;;;;;;;;6107957;23;20104;-86
2022/01/28 06:17:42;;;;;;;19.52;5.32;;;;;;;;;;6108543;23;20100;-86
2022/01/28 06:20:09;;;;;;;16.13;4.10;;;;;;;;;;6132973;23;20010;-88
2022/01/28 06:22:39;;;;;;;8.93;2.72;;;;;;;;;;6132013;23;20033;-86
2022/01/28 06:25:06;;;;;;;18.02;4.00;;;;;;;;;;6109193;23;20021;-87
2022/01/28 06:27:32;;;;;;;20.33;3.33;;;;;;;;;;6108845;23;20017;-88
2022/01/28 06:29:58;;;;;;;18.00;3.70;;;;;;;;;;6133139;23;20018;-89
2022/01/28 06:32:24;;;;;;;22.75;5.07;;;;;;;;;;6108561;23;20021;-88
2022/01/28 06:34:50;;;;;;;13.07;4.22;;;;;;;;;;6109032;23;20018;-88
2022/01/28 06:37:16;;;;;;;20.50;6.05;;;;;;;;;;6108466;23;20025;-87
2022/01/28 06:39:42;;;;;;;20.70;4.55;;;;;;;;;;6107888;23;20024;-87
2022/01/28 06:42:08;;;;;;;19.50;6.03;;;;;;;;;;6106977;23;20021;-88
2022/01/28 06:44:35;;;;;;;27.08;4.97;;;;;;;;;;6108897;23;20017;-88
2022/01/28 06:47:01;;;;;;;24.30;3.85;;;;;;;;;;6108915;23;20068;-86
2022/01/28 06:49:27;;;;;;;29.73;6.07;;;;;;;;;;6133158;23;20017;-87
2022/01/28 06:51:53;;;;;;;14.57;3.75;;;;;;;;;;6107662;23;20084;-87
2022/01/28 06:54:19;;;;;;;27.70;4.70;;;;;;;;;;6107514;23;20447;-87
2022/01/28 06:56:47;;;;;;;17.05;4.65;;;;;;;;;;6107800;23;20088;-87
2022/01/28 06:59:17;;;;;;;20.15;4.55;;;;;;;;;;6108148;23;20447;-87
2022/01/28 07:01:43;;;;;;;17.90;4.78;;;;;;;;;;6133609;23;20013;-88
2022/01/28 07:04:09;;;;;;;19.42;5.65;;;;;;;;;;6158858;23;20061;-88
2022/01/28 07:06:35;;;;;;;19.63;3.88;;;;;;;;;;6159157;23;20025;-88
2022/01/28 07:09:02;;;;;;;15.98;4.18;;;;;;;;;;6108656;23;20013;-88
2022/01/28 07:11:28;;;;;;;21.73;5.38;;;;;;;;;;6107681;23;20462;-88
2022/01/28 07:13:54;;;;;;;21.55;4.90;;;;;;;;;;6108993;23;20466;-88
2022/01/28 07:16:20;;;;;;;27.33;4.78;;;;;;;;;;6109711;23;20018;-88
2022/01/28 07:18:46;;;;;;;17.10;6.38;;;;;;;;;;6108140;23;20024;-89
2022/01/28 07:21:12;;;;;;;26.65;6.55;;;;;;;;;;6108832;23;20043;-87
2022/01/28 07:23:39;;;;;;;27.13;4.55;;;;;;;;;;6134808;23;20021;-87
2022/01/28 07:26:05;;;;;;;14.48;4.60;;;;;;;;;;6135295;23;20056;-87
2022/01/28 07:28:35;;;;;;;17.05;5.20;;;;;;;;;;6110741;23;20049;-89
2022/01/28 07:31:01;;;;;;;16.88;3.83;;;;;;;;;;6133196;23;20018;-87
2022/01/28 07:33:27;;;;;;;15.98;4.82;;;;;;;;;;6108134;23;20017;-88
2022/01/28 07:35:53;;;;;;;14.27;5.78;;;;;;;;;;6134151;23;20455;-87
2022/01/28 07:38:19;;;;;;;13.98;4.53;;;;;;;;;;6136248;23;20435;-89
2022/01/28 07:40:46;;;;;;;23.17;3.83;;;;;;;;;;6107258;23;20513;-89
2022/01/28 07:43:12;;;;;;;23.65;4.43;;;;;;;;;;6109230;23;20017;-89
2022/01/28 07:45:38;;;;;;;25.52;5.40;;;;;;;;;;6132294;23;20071;-90
2022/01/28 07:48:13;;;;;;;18.42;5.05;;;;;;;;;;6107877;23;20025;-89
2022/01/28 07:50:39;;;;;;;12.43;4.72;;;;;;;;;;6107195;23;20017;-89
2022/01/28 07:53:07;;;;;;;19.88;4.68;;;;;;;;;;6131742;23;20017;-90
2022/01/28 07:55:34;;;;;;;19.38;4.13;;;;;;;;;;6109090;23;20017;-93
2022/01/28 07:58:00;;;;;;;17.75;4.20;;;;;;;;;;6108436;23;20040;-91
2022/01/28 08:00:27;;;;;;;18.60;5.90;;;;;;;;;;6132143;23;20017;-89
2022/01/28 08:02:53;;;;;;;21.65;5.10;;;;;;;;;;6131651;23;20021;-90
2022/01/28 08:05:19;;;;;;;14.63;4.30;;;;;;;;;;6108080;23;20415;-92
2022/01/28 08:07:46;;;;;;;18.77;4.07;;;;;;;;;;6107779;23;20021;-93
2022/01/28 08:10:16;;;;;;;15.23;4.20;;;;;;;;;;6107435;23;20515;-93
2022/01/28 08:12:49;;;;;;;28.98;5.20;;;;;;;;;;6133472;23;20040;-93
2022/01/28 08:15:16;;;;;;;24.30;4.07;;;;;;;;;;6107989;23;20017;-92
2022/01/28 08:17:42;;;;;;;19.60;5.47;;;;;;;;;;6107824;23;20156;-94
2022/01/28 08:20:08;;;;;;;28.20;5.18;;;;;;;;;;6131766;23;20028;-92
2022/01/28 08:22:43;;;;;;;14.05;3.90;;;;;;;;;;6132211;23;20080;-89
2022/01/28 08:25:09;;;;;;;28.77;4.80;;;;;;;;;;6107962;23;20076;-89
2022/01/28 08:27:35;;;;;;;23.77;5.50;;;;;;;;;;6107441;23;20029;-88
2022/01/28 08:30:01;;;;;;;19.40;4.20;;;;;;;;;;6133056;23;20013;-89
2022/01/28 08:32:27;;;;;;;18.85;5.15;;;;;;;;;;6107918;23;20071;-89
2022/01/28 08:34:54;;;;;;;22.92;4.50;;;;;;;;;;6132245;23;20021;-90
2022/01/28 08:37:20;;;;;;;23.85;4.55;;;;;;;;;;6107375;23;20060;-89
2022/01/28 08:39:46;;;;;;;17.85;4.97;;;;;;;;;;6108528;23;20102;-89
2022/01/28 08:42:14;;;;;;;30.10;5.05;;;;;;;;;;6108375;23;20045;-88
2022/01/28 08:44:41;;;;;;;26.65;4.35;;;;;;;;;;6132260;23;20547;-88
2022/01/28 08:47:07;;;;;;;15.18;4.47;;;;;;;;;;6132358;23;20021;-89
2022/01/28 08:49:33;;;;;;;15.27;4.10;;;;;;;;;;6106932;23;20351;-90
2022/01/28 08:52:00;;;;;;;25.13;5.03;;;;;;;;;;6108913;23;20017;-91
2022/01/28 08:54:26;;;;;;;22.27;4.85;;;;;;;;;;6131988;23;20024;-89
2022/01/28 08:56:52;;;;;;;14.23;4.88;;;;;;;;;;6107621;23;20356;-90
2022/01/28 08:59:18;;;;;;;20.42;4.63;;;;;;;;;;6107276;23;20473;-89
2022/01/28 09:01:44;;;;;;;20.67;4.88;;;;;;;;;;6107117;23;20028;-91
2022/01/28 09:04:10;;;;;;;17.98;5.07;;;;;;;;;;6107269;23;20025;-92
2022/01/28 09:06:37;;;;;;;13.85;4.15;;;;;;;;;;6131332;23;20049;-90
2022/01/28 09:09:03;;;;;;;20.13;4.25;;;;;;;;;;6157153;23;20022;-89
2022/01/28 09:11:45;;;;;;;17.55;4.07;;;;;;;;;;6130877;23;20116;-90
2022/01/28 09:14:12;;;;;;;20.17;4.55;;;;;;;;;;6130730;23;20072;-90
2022/01/28 09:16:38;;;;;;;18.48;4.25;;;;;;;;;;6131587;23;20060;-89
2022/01/28 09:19:04;;;;;;;21.95;5.28;;;;;;;;;;6106416;23;20447;-89
2022/01/28 09:21:30;;;;;;;25.05;4.88;;;;;;;;;;6106621;23;20514;-89
2022/01/28 09:23:56;;;;;;;22.02;5.40;;;;;;;;;;6132461;23;20022;-89
2022/01/28 09:26:22;;;;;;;24.70;5.20;;;;;;;;;;6132149;23;20027;-90
2022/01/28 09:28:48;;;;;;;15.88;3.75;;;;;;;;;;6106648;23;20075;-88
2022/01/28 09:31:14;;;;;;;31.95;5.38;;;;;;;;;;6130467;23;20517;-89
2022/01/28 09:33:40;;;;;;;20.75;6.43;;;;;;;;;;6130479;23;20354;-89
2022/01/28 09:36:07;;;;;;;23.48;5.00;;;;;;;;;;6106720;23;20351;-89
2022/01/28 09:38:33;;;;;;;12.13;3.80;;;;;;;;;;6130303;23;20021;-86
2022/01/28 09:41:01;;;;;;;15.15;4.78;;;;;;;;;;6130993;23;20022;-88
2022/01/28 09:43:27;;;;;;;19.63;5.63;;;;;;;;;;6106449;23;20085;-87
2022/01/28 09:45:53;;;;;;;17.45;3.83;;;;;;;;;;6106425;23;20448;-89
2022/01/28 09:48:20;;;;;;;14.38;3.95;;;;;;;;;;6106435;23;20157;-88
2022/01/28 09:50:46;;;;;;;14.00;3.70;;;;;;;;;;6107279;23;20018;-88
2022/01/28 09:53:14;;;;;;;22.77;6.03;;;;;;;;;;6108870;23;20017;-88
2022/01/28 09:55:40;;;;;;;19.45;4.40;;;;;;;;;;6108612;23;20068;-88
2022/01/28 09:58:07;;;;;;;27.45;3.65;;;;;;;;;;6108327;23;20024;-87
2022/01/28 10:00:33;;;;;;;16.48;3.85;;;;;;;;;;6108215;23;20048;-88
2022/01/28 10:03:02;;;;;;;18.63;5.57;;;;;;;;;;6107643;23;20028;-88
2022/01/28 10:05:33;;;;;;;21.55;5.88;;;;;;;;;;6107889;23;20025;-88
2022/01/28 10:08:00;;;;;;;17.55;4.45;;;;;;;;;;6132449;23;20021;-88
2022/01/28 10:10:26;;;;;;;16.13;3.65;;;;;;;;;;6107798;23;20049;-88
2022/01/28 10:13:10;;;;;;;14.20;3.83;;;;;;;;;;6107663;23;20028;-88
2022/01/28 10:15:36;;;;;;;15.63;4.90;;;;;;;;;;6108484;23;20100;-89
2022/01/28 10:18:02;;;;;;;11.40;3.85;;;;;;;;;;6132351;23;20075;-89
2022/01/28 10:20:28;;;;;;;16.92;4.18;;;;;;;;;;6131794;23;20024;-90
2022/01/28 10:22:55;;;;;;;14.25;4.10;;;;;;;;;;6107357;23;20467;-89
2022/01/28 10:25:33;;;;;;;21.70;4.53;;;;;;;;;;6107818;23;20013;-88
2022/01/28 10:28:03;;;;;;;25.90;4.32;;;;;;;;;;6108285;23;20024;-88
2022/01/28 10:30:30;;;;;;;15.23;4.93;;;;;;;;;;6108401;23;20013;-88
2022/01/28 10:33:16;;;;;;;20.77;4.25;;;6.20;99.90;;;;;;6108328;23;20025;-87
2022/01/28 10:35:58;;;;;;;23.33;4.25;;;;;;;;;;6108629;23;20017;-88
2022/01/28 10:38:27;;;;;;;14.85;4.65;;;;;;;;;;6108561;23;20021;-88
2022/01/28 10:41:07;;;;;;;25.95;5.40;;;;;;;;;;6108173;23;20017;-88
2022/01/28 10:43:33;;;;;;;21.92;4.93;;;;;;;;;;6109235;23;20013;-88
2022/01/28 10:46:05;;;;;;;19.02;4.63;;;;;;;;;;6133338;23;20404;-90
2022/01/28 10:48:31;;;;;;;23.98;4.13;;;;;;;;;;6131981;23;20088;-90
2022/01/28 10:50:58;;;;;;;17.05;3.33;;;;;;;;;;6131982;23;20017;-88
2022/01/28 10:53:27;;;;;;;15.18;3.63;;;;;;;;;;6132109;23;20045;-88
2022/01/28 10:55:57;;;;;;;19.63;4.25;;;;;;;;;;6131993;23;20451;-88
2022/01/28 10:58:28;;;;;;;14.75;3.33;;;;;;;;;;6108168;23;20018;-88
2022/01/28 11:00:57;;;;;;;28.50;3.70;;;6.50;99.90;;;;;;6107017;23;20020;-88
2022/01/28 11:03:27;;;;;;;12.27;4.25;;;;;;;;;;6107227;23;20452;-90
2022/01/28 11:05:57;;;;;;;17.90;4.35;;;;;;;;;;6107123;23;20463;-89
2022/01/28 11:08:24;;;;;;;13.55;3.83;;;;;;;;;;6131409;23;20096;-89
2022/01/28 11:10:50;;;;;;;17.85;4.32;;;;;;;;;;6108303;23;20020;-88
2022/01/28 11:13:17;;;;;;;24.58;4.35;;;;;;;;;;6107376;23;20040;-88
2022/01/28 11:15:43;;;;;;;16.55;3.70;;;;;;;;;;6131508;23;20024;-88
2022/01/28 11:18:10;;;;;;;19.05;4.93;;;;;;;;;;6131638;23;20471;-88
2022/01/28 11:20:42;;;;;;;16.50;4.38;;;;;;;;;;6107135;23;20462;-89
2022/01/28 11:23:08;;;;;;;19.52;4.93;;;;;;;;;;6131674;23;20029;-89
2022/01/28 11:25:40;;;;;;;16.73;4.43;;;;;;;;;;6106971;23;20023;-89
2022/01/28 11:28:07;;;;;;;19.83;4.32;;;;;;;;;;6107948;23;20439;-89
2022/01/28 11:30:33;;;;;;;22.33;5.07;;;;;;;;;;6107345;23;20101;-90
2022/01/28 11:33:01;;;;;;;19.52;4.97;;;;;;;;;;6107626;23;20021;-91
2022/01/28 11:35:30;;;;;;;19.38;4.82;;;;;;;;;;6108150;23;20447;-89
2022/01/28 11:38:02;;;;;;;25.20;5.38;;;;;;;;;;6131990;23;20084;-90
2022/01/28 11:40:40;;;;;;;14.73;5.22;;;;;;;;;;6108043;23;20013;-90
2022/01/28 11:43:23;;;;;;;17.70;4.13;;;;;;;;;;6107324;23;20129;-88
2022/01/28 11:46:09;;;;;;;22.42;4.85;;;;;;;;;;6107849;23;20028;-89
2022/01/28 11:48:55;;;;;;;22.13;4.82;;;;;;;;;;6107048;23;20025;-90
2022/01/28 11:51:25;;;;;;;16.27;3.60;;;;;;;;;;6116554;23;20024;-90
2022/01/28 11:53:55;;;;;;;17.05;3.70;;;;;;;;;;6158192;23;20018;-90
2022/01/28 11:56:21;;;;;;;16.83;5.78;;;;;;;;;;6132394;23;20013;-90
2022/01/28 11:58:54;;;;;;;18.65;3.55;;;;;;;;;;6107881;23;20017;-91
2022/01/28 12:01:39;;;;;;;20.67;4.17;;;;;;;;;;6107254;23;20447;-90
2022/01/28 12:04:34;;;;;;;21.50;3.38;;;7.10;99.90;;;;;;6131457;23;20280;-90
2022/01/28 12:07:03;;;;;;;21.15;4.03;;;;;;;;;;6107292;23;20053;-88
2022/01/28 12:09:30;;;;;;;12.48;3.45;;;;;;;;;;6107538;23;20013;-89
2022/01/28 12:11:58;;;;;;;16.67;4.20;;;;;;;;;;6130774;23;20466;-89
2022/01/28 12:14:42;;;;;;;15.70;3.38;;;;;;;;;;6131924;23;20444;-90
2022/01/28 12:17:30;;;;;;;12.30;3.70;;;7.20;99.90;;;;;;6106928;23;20036;-90
2022/01/28 12:20:12;;;;;;;19.73;4.18;;;;;;;;;;6106623;23;20049;-90
2022/01/28 12:23:04;;;;;;;20.77;4.45;;;;;;;;;;6131052;23;20056;-91
2022/01/28 12:25:36;;;;;;;16.40;4.25;;;;;;;;;;6043145;23;20025;-89
2022/01/28 12:28:26;;;;;;;15.27;2.60;;;7.40;99.90;;;;;;6019459;23;20018;-90
2022/01/28 12:30:59;;;;;;;14.30;3.33;;;;;;;;;;6043268;23;20570;-89
2022/01/28 12:33:26;;;;;;;14.77;4.47;;;;;;;;;;6019844;23;20027;-89
2022/01/28 12:35:56;;;;;;;19.25;4.00;;;;;;;;;;6043198;23;20011;-91
2022/01/28 12:38:24;;;;;;;13.35;3.80;;;;;;;;;;6043362;23;20082;-90
2022/01/28 12:40:53;;;;;;;15.75;3.80;;;;;;;;;;6019830;23;20014;-92
2022/01/28 12:43:20;;;;;;;10.93;3.58;;;;;;;;;;6019504;23;20453;-90
2022/01/28 12:45:56;;;;;;;12.80;3.05;;;;;;;;;;6019540;23;20331;-89
2022/01/28 12:48:22;;;;;;;16.83;4.47;;;;;;;;;;6043383;23;20450;-92
2022/01/28 12:50:51;;;;;;;8.57;3.33;;;;;;;;;;6019513;23;20472;-89
2022/01/28 12:53:27;;;;;;;13.88;3.40;;;;;;;;;;6019876;23;20491;-91
2022/01/28 12:55:53;;;;;;;15.40;3.58;;;;;;;;;;6020015;23;20039;-90
2022/01/28 12:58:29;;;;;;;11.15;3.13;;;;;;;;;;6019983;23;20472;-89
2022/01/28 13:01:02;;;;;;;12.32;4.65;;;;;;;;;;6019506;23;20043;-90
2022/01/28 13:03:34;;;;;;;13.00;3.70;;;;;;;;;;6130933;23;20065;-92
2022/01/28 13:06:22;;;;;;;14.73;2.88;;;;;;;;;;6131610;23;20018;-90
2022/01/28 13:08:48;;;;;;;21.38;3.58;;;;;;;;;;6107473;23;20048;-93
2022/01/28 13:11:14;;;;;;;13.13;3.65;;;;;;;;;;6131441;23;20018;-91
2022/01/28 13:13:55;;;;;;;16.55;4.03;;;;;;;;;;6123413;23;20002;-90
2022/01/28 13:16:34;;;;;;;13.75;4.40;;;;;;;;;;6131677;23;20021;-93
2022/01/28 13:19:01;;;;;;;18.92;3.13;;;;;;;;;;6108320;23;20153;-90
2022/01/28 13:21:27;;;;;;;16.40;3.88;;;;;;;;;;6130348;23;20024;-92
2022/01/28 13:24:17;;;;;;;16.52;3.83;;;;;;;;;;6107890;23;20447;-92
2022/01/28 13:26:55;;;;;;;14.95;4.43;;;;;;;;;;6021975;23;20022;-91
2022/01/28 13:29:31;;;;;;;9.38;2.78;;;;;;;;;;6021863;23;20097;-89
2022/01/28 13:31:58;;;;;;;9.57;3.80;;;;;;;;;;6045870;23;20018;-90
2022/01/28 13:34:24;;;;;;;16.65;4.00;;;;;;;;;;6044682;23;20015;-94
2022/01/28 13:36:52;;;;;;;13.13;2.75;;;;;;;;;;6044919;23;20022;-92
2022/01/28 13:39:19;;;;;;;13.18;3.67;;;;;;;;;;6046043;23;20067;-92
2022/01/28 13:41:50;;;;;;;9.65;2.80;;;;;;;;;;6021806;23;20491;-92
2022/01/28 13:44:26;;;;;;;11.65;2.28;;;;;;;;;;6022330;23;20030;-92
2022/01/28 13:46:55;;;;;;;20.33;4.03;;;;;;;;;;6021263;23;20041;-92
2022/01/28 13:49:27;;;;;;;15.20;3.80;;;;;;;;;;6045019;23;20385;-91
2022/01/28 13:51:54;;;;;;;17.88;3.47;;;;;;;;;;6046147;23;20101;-91
2022/01/28 13:54:30;;;;;;;16.88;3.22;;;;;;;;;;6021341;23;20082;-92
2022/01/28 13:57:00;;;;;;;14.23;3.67;;;;;;;;;;6021381;23;20022;-93
2022/01/28 13:59:29;;;;;;;17.60;3.20;;;;;;;;;;6020990;23;20019;-91
2022/01/28 14:01:59;;;;;;;7.88;3.40;;;;;;;;;;6021206;23;20033;-92
2022/01/28 14:04:35;;;;;;;9.85;2.47;;;;;;;;;;6091555;23;20014;-91
2022/01/28 14:07:29;;;;;;;8.80;2.92;;;;;;;;;;6108013;23;20017;-89
2022/01/28 14:10:00;;;;;;;29.02;3.38;;;;;;;;;;6044844;23;20110;-90
2022/01/28 14:12:36;;;;;;;18.10;3.75;;;;;;;;;;6044555;23;20042;-91
2022/01/28 14:16:01;;;;;;;15.32;3.05;;;;;;;;;;6021109;23;20071;-91
2022/01/28 14:17:49;;;;;;;15.68;3.20;;;;;;;;;;6030010;23;20019;-92
2022/01/28 14:20:15;;;;;;;15.90;5.07;;;;;;;;;;6021367;23;20229;-90
2022/01/28 14:22:41;;;;;;;31.00;3.80;;;;;;;;;;6044694;23;20025;-93
2022/01/28 14:25:07;;;;;;;10.32;2.25;;;;;;;;;;6044120;23;20015;-89
2022/01/28 14:30:22;;;;;;;11.43;2.83;;;;;;;;;;6044984;23;20346;-91
2022/01/28 14:32:49;;;;;;;11.90;2.78;;;;;;;;;;6044439;23;20022;-93
2022/01/28 14:35:15;;;;;;;13.98;2.67;;;;;;;;;;6020656;23;20015;-89
2022/01/28 14:37:42;;;;;;;10.48;2.42;;;;;;;;;;6044622;23;20027;-92
2022/01/28 14:40:10;;;;;;;10.63;2.22;;;7.30;99.90;;;;;;6021206;23;20021;-88
2022/01/28 14:42:42;;;;;;;10.10;3.13;;;;;;;;;;6069571;23;20319;-91
2022/01/28 14:45:09;;;;;;;5.95;2.70;;;;;;;;;;6046767;23;20027;-93
2022/01/28 14:47:35;;;;;;;9.90;2.47;;;;;;;;;;6100843;23;20036;-92
2022/01/28 14:50:01;;;;;;;7.97;2.53;;;;;;;;;;6110479;23;20395;-92
2022/01/28 14:52:30;;;;;;;7.93;2.78;;;;;;;;;;6109857;23;20101;-89
2022/01/28 14:54:56;;;;;;;17.05;3.00;;;;;;;;;;6110893;23;20071;-90
2022/01/28 14:57:23;;;;;;;12.93;3.15;;;;;;;;;;6109549;23;20021;-88
2022/01/28 14:59:49;;;;;;;8.65;2.72;;;;;;;;;;6158387;23;20029;-89
2022/01/28 15:02:19;;;;;;;17.15;2.83;;;;;;;;;;6158441;23;20029;-88
2022/01/28 15:04:45;;;;;;;16.17;3.25;;;;;;;;;;6132377;23;20458;-90
2022/01/28 15:07:11;;;;;;;9.65;3.08;;;;;;;;;;6107868;23;20091;-89
2022/01/28 15:09:40;;;;;;;23.35;3.67;;;;;;;;;;6107914;23;20419;-89
2022/01/28 15:12:07;;;;;;;13.63;3.70;;;;;;;;;;6107699;23;20053;-89
2022/01/28 15:14:33;;;;;;;10.18;4.00;;;;;;;;;;6107827;23;20017;-89
2022/01/28 15:17:00;;;;;;;15.75;3.50;;;;;;;;;;6132139;23;20023;-91
2022/01/28 15:19:26;;;;;;;12.18;3.95;;;;;;;;;;6107291;23;20017;-89
2022/01/28 15:21:53;;;;;;;12.75;3.17;;;;;;;;;;6107749;23;20036;-87
2022/01/28 15:24:23;;;;;;;12.38;3.30;;;;;;;;;;6109962;23;20032;-86
2022/01/28 15:26:49;;;;;;;12.43;3.30;;;;;;;;;;6109417;23;20053;-86
2022/01/28 15:37:21;;;;;;;16.67;3.47;;;;;;;;;;6159847;23;20097;-90
2022/01/28 15:39:47;;;;;;;19.15;3.90;;;;;;;;;;6133033;23;20340;-92
2022/01/28 15:42:13;;;;;;;14.10;3.78;;;;;;;;;;6133276;23;20352;-88
2022/01/28 15:44:40;;;;;;;16.75;3.00;;;;;;;;;;6132670;23;20022;-88
2022/01/28 15:47:15;;;;;;;20.05;3.50;;;;;;;;;;6134072;23;20463;-89
2022/01/28 15:49:42;;;;;;;10.90;3.20;;;;;;;;;;6132630;23;20018;-90
2022/01/28 15:52:08;;;;;;;12.88;3.60;;;;;;;;;;6107038;23;20017;-89
2022/01/28 15:54:34;;;;;;;18.83;3.20;;;;;;;;;;6107508;23;20018;-89
2022/01/28 15:57:00;;;;;;;11.07;3.33;;;;;;;;;;6131575;23;20474;-90
2022/01/28 15:59:26;;;;;;;15.13;3.40;;;;;;;;;;6131887;23;20347;-90
2022/01/28 16:01:52;;;;;;;19.75;4.05;;;;;;;;;;6131834;23;20538;-90
2022/01/28 16:04:19;;;;;;;8.18;3.13;;;;;;;;;;6107296;23;20024;-90
2022/01/28 16:06:48;;;;;;;8.00;2.30;;;;;;;;;;6159180;23;20017;-89
2022/01/28 16:09:14;;;;;;;10.93;3.10;;;;;;;;;;6130610;23;20128;-89
2022/01/28 16:14:18;;;;;;;18.70;4.22;;;;;;;;;;6131796;23;20049;-89
2022/01/28 16:19:30;;;;;;;10.80;2.30;;;;;;;;;;6131164;23;20021;-89
2022/01/28 16:21:56;;;;;;;12.85;3.80;;;;;;;;;;6131966;23;20439;-91
2022/01/28 16:24:22;;;;;;;21.20;3.92;;;;;;;;;;6108147;23;20477;-89
2022/01/28 16:26:49;;;;;;;8.07;2.92;;;;;;;;;;6131327;23;20356;-89